sensor_id;sensor_type;location;lat;lon;timestamp;pressure;altitude;pressure_sealevel;temperature;humidity
76311;BME280;65120;59.304;18.294;2023-06-22T00:00:48;101123.75;;;20.03;65.62
76311;BME280;65120;59.304;18.294;2023-06-22T00:03:15;101130.06;;;20.00;65.65
76311;BME280;65120;59.304;18.294;2023-06-22T00:05:41;101134.50;;;19.99;65.60
76311;BME280;65120;59.304;18.294;2023-06-22T00:08:08;101124.06;;;19.96;65.67
76311;BME280;65120;59.304;18.294;2023-06-22T00:10:35;101130.31;;;19.95;65.79
76311;BME280;65120;59.304;18.294;2023-06-22T00:13:02;101126.88;;;19.93;65.59
76311;BME280;65120;59.304;18.294;2023-06-22T00:15:29;101123.44;;;19.91;65.59
76311;BME280;65120;59.304;18.294;2023-06-22T00:17:57;101126.09;;;19.91;65.78
76311;BME280;65120;59.304;18.294;2023-06-22T00:20:24;101120.88;;;19.90;65.63
76311;BME280;65120;59.304;18.294;2023-06-22T00:22:53;101124.44;;;19.89;65.62
76311;BME280;65120;59.304;18.294;2023-06-22T00:25:20;101122.81;;;19.86;65.75
76311;BME280;65120;59.304;18.294;2023-06-22T00:27:47;101123.75;;;19.85;65.46
76311;BME280;65120;59.304;18.294;2023-06-22T00:30:15;101118.63;;;19.82;65.53
76311;BME280;65120;59.304;18.294;2023-06-22T00:32:42;101115.97;;;19.82;65.78
76311;BME280;65120;59.304;18.294;2023-06-22T00:35:13;101117.84;;;19.80;65.80
76311;BME280;65120;59.304;18.294;2023-06-22T00:37:40;101116.97;;;19.80;65.79
76311;BME280;65120;59.304;18.294;2023-06-22T00:40:08;101118.00;;;19.77;65.74
76311;BME280;65120;59.304;18.294;2023-06-22T00:42:37;101116.28;;;19.76;65.85
76311;BME280;65120;59.304;18.294;2023-06-22T00:45:05;101117.22;;;19.75;65.64
76311;BME280;65120;59.304;18.294;2023-06-22T00:47:34;101113.81;;;19.73;65.42
76311;BME280;65120;59.304;18.294;2023-06-22T00:50:02;101111.22;;;19.71;65.60
76311;BME280;65120;59.304;18.294;2023-06-22T00:52:31;101121.81;;;19.71;65.59
76311;BME280;65120;59.304;18.294;2023-06-22T00:55:01;101116.59;;;19.70;65.58
76311;BME280;65120;59.304;18.294;2023-06-22T00:57:28;101114.88;;;19.69;65.65
76311;BME280;65120;59.304;18.294;2023-06-22T00:59:55;101112.38;;;19.66;65.64
76311;BME280;65120;59.304;18.294;2023-06-22T01:02:22;101115.03;;;19.66;65.73
76311;BME280;65120;59.304;18.294;2023-06-22T01:04:49;101109.78;;;19.64;65.93
76311;BME280;65120;59.304;18.294;2023-06-22T01:07:20;101105.41;;;19.63;66.01
76311;BME280;65120;59.304;18.294;2023-06-22T01:09:56;101111.66;;;19.62;66.02
76311;BME280;65120;59.304;18.294;2023-06-22T01:12:25;101110.03;;;19.60;66.01
76311;BME280;65120;59.304;18.294;2023-06-22T01:14:59;101108.31;;;19.59;65.75
76311;BME280;65120;59.304;18.294;2023-06-22T01:17:28;101111.88;;;19.58;65.99
76311;BME280;65120;59.304;18.294;2023-06-22T01:19:57;101110.19;;;19.57;66.08
76311;BME280;65120;59.304;18.294;2023-06-22T01:22:30;101108.47;;;19.55;66.17
76311;BME280;65120;59.304;18.294;2023-06-22T01:25:07;101112.03;;;19.54;66.15
76311;BME280;65120;59.304;18.294;2023-06-22T01:27:40;101109.38;;;19.54;66.42
76311;BME280;65120;59.304;18.294;2023-06-22T01:30:15;101105.88;;;19.54;66.26
76311;BME280;65120;59.304;18.294;2023-06-22T01:32:43;101104.19;;;19.53;66.61
76311;BME280;65120;59.304;18.294;2023-06-22T01:35:11;101107.75;;;19.52;66.44
76311;BME280;65120;59.304;18.294;2023-06-22T01:37:39;101105.09;;;19.52;66.62
76311;BME280;65120;59.304;18.294;2023-06-22T01:40:07;101106.03;;;19.51;66.63
76311;BME280;65120;59.304;18.294;2023-06-22T01:42:35;101096.44;;;19.48;66.78
76311;BME280;65120;59.304;18.294;2023-06-22T01:45:04;101093.00;;;19.46;66.78
76311;BME280;65120;59.304;18.294;2023-06-22T01:47:33;101091.94;;;19.50;66.78
76311;BME280;65120;59.304;18.294;2023-06-22T01:50:01;101099.88;;;19.50;66.67
76311;BME280;65120;59.304;18.294;2023-06-22T01:52:28;101094.75;;;19.47;66.98
76311;BME280;65120;59.304;18.294;2023-06-22T01:54:54;101097.31;;;19.49;67.10
76311;BME280;65120;59.304;18.294;2023-06-22T01:57:23;101092.00;;;19.49;66.99
76311;BME280;65120;59.304;18.294;2023-06-22T01:59:55;101092.94;;;19.48;67.11
76311;BME280;65120;59.304;18.294;2023-06-22T02:02:25;101100.91;;;19.48;67.25
76311;BME280;65120;59.304;18.294;2023-06-22T02:04:59;101096.44;;;19.48;67.28
76311;BME280;65120;59.304;18.294;2023-06-22T02:07:32;101090.38;;;19.46;67.15
76311;BME280;65120;59.304;18.294;2023-06-22T02:10:02;101098.31;;;19.46;67.15
76311;BME280;65120;59.304;18.294;2023-06-22T02:12:31;101089.50;;;19.46;67.37
76311;BME280;65120;59.304;18.294;2023-06-22T02:14:59;101098.31;;;19.46;67.45
76311;BME280;65120;59.304;18.294;2023-06-22T02:17:26;101104.56;;;19.45;67.53
76311;BME280;65120;59.304;18.294;2023-06-22T02:19:53;101101.06;;;19.45;67.39
76311;BME280;65120;59.304;18.294;2023-06-22T02:22:22;101104.56;;;19.45;67.55
76311;BME280;65120;59.304;18.294;2023-06-22T02:24:49;101101.13;;;19.43;67.38
76311;BME280;65120;59.304;18.294;2023-06-22T02:27:16;101115.16;;;19.45;67.56
76311;BME280;65120;59.304;18.294;2023-06-22T02:29:43;101099.31;;;19.44;67.55
76311;BME280;65120;59.304;18.294;2023-06-22T02:32:09;101098.41;;;19.45;67.73
76311;BME280;65120;59.304;18.294;2023-06-22T02:34:36;101089.97;;;19.37;67.65
76311;BME280;65120;59.304;18.294;2023-06-22T02:37:03;101096.69;;;19.44;67.81
76311;BME280;65120;59.304;18.294;2023-06-22T02:39:32;101088.72;;;19.44;67.72
76311;BME280;65120;59.304;18.294;2023-06-22T02:41:59;101094.91;;;19.44;67.90
76311;BME280;65120;59.304;18.294;2023-06-22T02:44:25;101106.34;;;19.45;68.10
76311;BME280;65120;59.304;18.294;2023-06-22T02:46:52;101100.22;;;19.44;67.98
76311;BME280;65120;59.304;18.294;2023-06-22T02:49:20;101092.16;;;19.46;68.26
76311;BME280;65120;59.304;18.294;2023-06-22T02:51:48;101096.63;;;19.45;68.14
76311;BME280;65120;59.304;18.294;2023-06-22T02:54:14;101091.31;;;19.45;68.25
76311;BME280;65120;59.304;18.294;2023-06-22T02:56:43;101096.56;;;19.47;68.16
76311;BME280;65120;59.304;18.294;2023-06-22T02:59:10;101094.75;;;19.47;68.46
76311;BME280;65120;59.304;18.294;2023-06-22T03:01:37;101090.31;;;19.48;68.41
76311;BME280;65120;59.304;18.294;2023-06-22T03:04:05;101094.75;;;19.47;68.40
76311;BME280;65120;59.304;18.294;2023-06-22T03:06:32;101098.25;;;19.48;68.59
76311;BME280;65120;59.304;18.294;2023-06-22T03:09:01;101094.59;;;19.50;68.48
76311;BME280;65120;59.304;18.294;2023-06-22T03:11:29;101101.59;;;19.51;68.70
76311;BME280;65120;59.304;18.294;2023-06-22T03:13:58;101098.09;;;19.51;68.66
76311;BME280;65120;59.304;18.294;2023-06-22T03:16:25;101103.31;;;19.52;68.51
76311;BME280;65120;59.304;18.294;2023-06-22T03:18:52;101111.19;;;19.54;69.12
76311;BME280;65120;59.304;18.294;2023-06-22T03:21:21;101109.31;;;19.56;69.00
76311;BME280;65120;59.304;18.294;2023-06-22T03:23:48;101104.88;;;19.57;69.11
76311;BME280;65120;59.304;18.294;2023-06-22T03:26:16;101101.28;;;19.58;69.27
76311;BME280;65120;59.304;18.294;2023-06-22T03:28:43;101115.31;;;19.60;69.15
76311;BME280;65120;59.304;18.294;2023-06-22T03:31:12;101108.31;;;19.59;69.23
76311;BME280;65120;59.304;18.294;2023-06-22T03:33:38;101104.56;;;19.63;69.30
76311;BME280;65120;59.304;18.294;2023-06-22T03:36:05;101100.09;;;19.63;69.46
76311;BME280;65120;59.304;18.294;2023-06-22T03:38:32;101098.28;;;19.65;69.50
76311;BME280;65120;59.304;18.294;2023-06-22T03:40:59;101103.41;;;19.68;69.44
76311;BME280;65120;59.304;18.294;2023-06-22T03:43:26;101096.25;;;19.70;69.46
76311;BME280;65120;59.304;18.294;2023-06-22T03:45:53;101097.91;;;19.73;69.52
76311;BME280;65120;59.304;18.294;2023-06-22T03:48:21;101093.34;;;19.75;69.31
76311;BME280;65120;59.304;18.294;2023-06-22T03:50:48;101088.94;;;19.75;69.27
76311;BME280;65120;59.304;18.294;2023-06-22T03:53:14;101091.31;;;19.80;69.51
76311;BME280;65120;59.304;18.294;2023-06-22T03:55:48;101089.47;;;19.82;69.79
76311;BME280;65120;59.304;18.294;2023-06-22T03:58:16;101084.84;;;19.86;69.49
76311;BME280;65120;59.304;18.294;2023-06-22T04:00:44;101076.81;;;19.87;69.41
76311;BME280;65120;59.304;18.294;2023-06-22T04:03:11;101086.25;;;19.93;69.41
76311;BME280;65120;59.304;18.294;2023-06-22T04:05:39;101086.09;;;19.96;69.39
76311;BME280;65120;59.304;18.294;2023-06-22T04:08:07;101092.09;;;19.99;69.28
76311;BME280;65120;59.304;18.294;2023-06-22T04:10:34;101096.31;;;20.04;69.13
76311;BME280;65120;59.304;18.294;2023-06-22T04:13:01;101086.53;;;20.04;69.06
76311;BME280;65120;59.304;18.294;2023-06-22T04:15:27;101100.31;;;20.11;68.88
76311;BME280;65120;59.304;18.294;2023-06-22T04:17:54;101094.16;;;20.10;68.62
76311;BME280;65120;59.304;18.294;2023-06-22T04:20:21;101102.59;;;20.18;68.42
76311;BME280;65120;59.304;18.294;2023-06-22T04:22:52;101097.09;;;20.21;68.55
76311;BME280;65120;59.304;18.294;2023-06-22T04:25:19;101098.75;;;20.24;68.55
76311;BME280;65120;59.304;18.294;2023-06-22T04:27:47;101103.88;;;20.27;68.27
76311;BME280;65120;59.304;18.294;2023-06-22T04:30:14;101095.75;;;20.30;68.32
76311;BME280;65120;59.304;18.294;2023-06-22T04:32:42;101104.50;;;20.32;68.33
76311;BME280;65120;59.304;18.294;2023-06-22T04:35:09;101087.53;;;20.35;68.03
76311;BME280;65120;59.304;18.294;2023-06-22T04:37:36;101091.91;;;20.36;67.70
76311;BME280;65120;59.304;18.294;2023-06-22T04:40:07;101092.59;;;20.39;67.79
76311;BME280;65120;59.304;18.294;2023-06-22T04:42:35;101090.78;;;20.40;67.64
76311;BME280;65120;59.304;18.294;2023-06-22T04:45:03;101103.13;;;20.41;67.48
76311;BME280;65120;59.304;18.294;2023-06-22T04:47:30;101102.13;;;20.43;67.45
76311;BME280;65120;59.304;18.294;2023-06-22T04:49:57;101098.50;;;20.44;67.61
76311;BME280;65120;59.304;18.294;2023-06-22T04:52:23;101095.75;;;20.46;67.68
76311;BME280;65120;59.304;18.294;2023-06-22T04:54:50;101096.47;;;20.50;67.54
76311;BME280;65120;59.304;18.294;2023-06-22T04:57:22;101103.34;;;20.54;67.27
76311;BME280;65120;59.304;18.294;2023-06-22T04:59:58;101090.75;;;20.57;67.54
76311;BME280;65120;59.304;18.294;2023-06-22T05:02:36;101092.22;;;20.63;66.56
76311;BME280;65120;59.304;18.294;2023-06-22T05:05:04;101106.09;;;20.68;66.50
76311;BME280;65120;59.304;18.294;2023-06-22T05:07:32;101096.16;;;20.72;66.20
76311;BME280;65120;59.304;18.294;2023-06-22T05:09:59;101098.56;;;20.76;66.17
76311;BME280;65120;59.304;18.294;2023-06-22T05:12:28;101103.63;;;20.81;65.96
76311;BME280;65120;59.304;18.294;2023-06-22T05:14:55;101098.03;;;20.85;65.92
76311;BME280;65120;59.304;18.294;2023-06-22T05:17:22;101100.34;;;20.92;65.19
76311;BME280;65120;59.304;18.294;2023-06-22T05:19:49;101092.13;;;20.96;64.72
76311;BME280;65120;59.304;18.294;2023-06-22T05:22:15;101091.00;;;21.00;64.45
76311;BME280;65120;59.304;18.294;2023-06-22T05:24:43;101088.94;;;21.05;64.21
76311;BME280;65120;59.304;18.294;2023-06-22T05:27:10;101097.50;;;21.10;64.10
76311;BME280;65120;59.304;18.294;2023-06-22T05:29:39;101092.69;;;21.17;64.22
76311;BME280;65120;59.304;18.294;2023-06-22T05:32:06;101091.47;;;21.23;63.87
76311;BME280;65120;59.304;18.294;2023-06-22T05:34:33;101096.34;;;21.30;63.89
76311;BME280;65120;59.304;18.294;2023-06-22T05:37:00;101096.81;;;21.39;63.49
76311;BME280;65120;59.304;18.294;2023-06-22T05:39:27;101096.25;;;21.48;63.30
76311;BME280;65120;59.304;18.294;2023-06-22T05:41:54;101102.94;;;21.55;63.06
76311;BME280;65120;59.304;18.294;2023-06-22T05:44:20;101106.19;;;21.60;62.83
76311;BME280;65120;59.304;18.294;2023-06-22T05:46:49;101102.38;;;21.64;62.62
76311;BME280;65120;59.304;18.294;2023-06-22T05:49:15;101096.69;;;21.70;62.53
76311;BME280;65120;59.304;18.294;2023-06-22T05:51:42;101101.63;;;21.76;62.19
76311;BME280;65120;59.304;18.294;2023-06-22T05:54:09;101101.38;;;21.81;61.97
76311;BME280;65120;59.304;18.294;2023-06-22T05:56:38;101110.66;;;21.88;62.01
76311;BME280;65120;59.304;18.294;2023-06-22T05:59:05;101109.38;;;21.95;61.43
76311;BME280;65120;59.304;18.294;2023-06-22T06:01:32;101105.56;;;21.99;61.82
76311;BME280;65120;59.304;18.294;2023-06-22T06:04:02;101092.84;;;22.05;61.57
76311;BME280;65120;59.304;18.294;2023-06-22T06:06:30;101097.88;;;22.09;60.79
76311;BME280;65120;59.304;18.294;2023-06-22T06:08:57;101104.81;;;22.12;60.81
76311;BME280;65120;59.304;18.294;2023-06-22T06:11:25;101096.53;;;22.16;60.39
76311;BME280;65120;59.304;18.294;2023-06-22T06:13:51;101103.50;;;22.19;60.29
76311;BME280;65120;59.304;18.294;2023-06-22T06:16:18;101109.50;;;22.22;60.00
76311;BME280;65120;59.304;18.294;2023-06-22T06:18:45;101105.72;;;22.27;59.84
76311;BME280;65120;59.304;18.294;2023-06-22T06:21:15;101097.53;;;22.30;59.61
76311;BME280;65120;59.304;18.294;2023-06-22T06:23:42;101105.13;;;22.36;59.34
76311;BME280;65120;59.304;18.294;2023-06-22T06:26:09;101103.22;;;22.38;58.83
76311;BME280;65120;59.304;18.294;2023-06-22T06:28:36;101110.06;;;22.42;58.72
76311;BME280;65120;59.304;18.294;2023-06-22T06:31:02;101111.78;;;22.43;58.20
76311;BME280;65120;59.304;18.294;2023-06-22T06:33:32;101113.56;;;22.42;58.19
76311;BME280;65120;59.304;18.294;2023-06-22T06:35:59;101127.75;;;22.43;57.61
76311;BME280;65120;59.304;18.294;2023-06-22T06:38:30;101117.13;;;22.43;57.74
76311;BME280;65120;59.304;18.294;2023-06-22T06:40:58;101125.94;;;22.43;57.51
76311;BME280;65120;59.304;18.294;2023-06-22T06:43:25;101129.66;;;22.41;57.68
76311;BME280;65120;59.304;18.294;2023-06-22T06:45:52;101121.88;;;22.38;57.80
76311;BME280;65120;59.304;18.294;2023-06-22T06:48:19;101128.13;;;22.37;58.16
76311;BME280;65120;59.304;18.294;2023-06-22T06:50:45;101127.38;;;22.35;58.42
76311;BME280;65120;59.304;18.294;2023-06-22T06:53:12;101125.75;;;22.32;58.51
76311;BME280;65120;59.304;18.294;2023-06-22T06:55:41;101119.47;;;22.33;58.71
76311;BME280;65120;59.304;18.294;2023-06-22T06:58:07;101121.47;;;22.30;58.79
76311;BME280;65120;59.304;18.294;2023-06-22T07:00:37;101131.09;;;22.32;58.57
76311;BME280;65120;59.304;18.294;2023-06-22T07:03:04;101128.50;;;22.31;58.82
76311;BME280;65120;59.304;18.294;2023-06-22T07:05:32;101128.63;;;22.29;58.92
76311;BME280;65120;59.304;18.294;2023-06-22T07:07:59;101139.25;;;22.29;58.98
76311;BME280;65120;59.304;18.294;2023-06-22T07:10:26;101134.03;;;22.28;58.76
76311;BME280;65120;59.304;18.294;2023-06-22T07:12:54;101133.28;;;22.26;58.81
76311;BME280;65120;59.304;18.294;2023-06-22T07:15:22;101131.56;;;22.25;58.63
76311;BME280;65120;59.304;18.294;2023-06-22T07:17:49;101135.06;;;22.25;58.63
76311;BME280;65120;59.304;18.294;2023-06-22T07:20:16;101130.50;;;22.27;58.33
76311;BME280;65120;59.304;18.294;2023-06-22T07:22:44;101130.44;;;22.29;58.84
76311;BME280;65120;59.304;18.294;2023-06-22T07:25:11;101129.34;;;22.31;58.84
76311;BME280;65120;59.304;18.294;2023-06-22T07:27:45;101137.06;;;22.36;59.07
76311;BME280;65120;59.304;18.294;2023-06-22T07:30:14;101137.53;;;22.42;58.75
76311;BME280;65120;59.304;18.294;2023-06-22T07:32:41;101135.25;;;22.51;58.82
76311;BME280;65120;59.304;18.294;2023-06-22T07:35:08;101138.28;;;22.59;58.36
76311;BME280;65120;59.304;18.294;2023-06-22T07:37:36;101144.94;;;22.66;58.21
76311;BME280;65120;59.304;18.294;2023-06-22T07:40:03;101140.28;;;22.70;57.55
76311;BME280;65120;59.304;18.294;2023-06-22T07:42:32;101140.94;;;22.73;57.04
76311;BME280;65120;59.304;18.294;2023-06-22T07:44:59;101106.44;;;22.57;56.79
76311;BME280;65120;59.304;18.294;2023-06-22T07:47:28;101137.22;;;22.76;56.89
76311;BME280;65120;59.304;18.294;2023-06-22T07:49:55;101142.25;;;22.80;56.55
76311;BME280;65120;59.304;18.294;2023-06-22T07:52:23;101141.28;;;22.81;56.71
76311;BME280;65120;59.304;18.294;2023-06-22T07:54:51;101134.84;;;22.85;56.44
76311;BME280;65120;59.304;18.294;2023-06-22T07:57:18;101133.88;;;22.86;55.87
76311;BME280;65120;59.304;18.294;2023-06-22T07:59:45;101141.00;;;22.86;55.92
76311;BME280;65120;59.304;18.294;2023-06-22T08:02:12;101142.72;;;22.87;55.74
76311;BME280;65120;59.304;18.294;2023-06-22T08:04:40;101134.84;;;22.85;55.50
76311;BME280;65120;59.304;18.294;2023-06-22T08:07:07;101136.72;;;22.83;55.39
76311;BME280;65120;59.304;18.294;2023-06-22T08:09:35;101141.28;;;22.81;55.05
76311;BME280;65120;59.304;18.294;2023-06-22T08:12:02;101139.78;;;22.77;55.13
76311;BME280;65120;59.304;18.294;2023-06-22T08:14:29;101132.84;;;22.75;55.31
76311;BME280;65120;59.304;18.294;2023-06-22T08:16:56;101132.09;;;22.73;54.94
76311;BME280;65120;59.304;18.294;2023-06-22T08:19:23;101140.28;;;22.70;55.12
76311;BME280;65120;59.304;18.294;2023-06-22T08:21:51;101136.75;;;22.69;55.49
76311;BME280;65120;59.304;18.294;2023-06-22T08:24:18;101134.09;;;22.69;55.37
76311;BME280;65120;59.304;18.294;2023-06-22T08:26:45;101127.91;;;22.68;55.54
76311;BME280;65120;59.304;18.294;2023-06-22T08:29:12;101135.03;;;22.68;55.21
76311;BME280;65120;59.304;18.294;2023-06-22T08:31:39;101128.13;;;22.65;55.59
76311;BME280;65120;59.304;18.294;2023-06-22T08:34:06;101131.53;;;22.67;55.74
76311;BME280;65120;59.304;18.294;2023-06-22T08:36:33;101129.50;;;22.71;55.89
76311;BME280;65120;59.304;18.294;2023-06-22T08:39:04;101118.00;;;22.71;55.62
76311;BME280;65120;59.304;18.294;2023-06-22T08:41:31;101132.75;;;22.76;55.30
76311;BME280;65120;59.304;18.294;2023-06-22T08:43:57;101125.72;;;22.75;55.22
76311;BME280;65120;59.304;18.294;2023-06-22T08:46:25;101130.75;;;22.80;55.30
76311;BME280;65120;59.304;18.294;2023-06-22T08:48:55;101129.69;;;22.82;55.21
76311;BME280;65120;59.304;18.294;2023-06-22T08:51:23;101133.94;;;22.85;54.78
76311;BME280;65120;59.304;18.294;2023-06-22T08:53:50;101134.63;;;22.88;55.03
76311;BME280;65120;59.304;18.294;2023-06-22T08:56:18;101131.66;;;22.93;55.11
76311;BME280;65120;59.304;18.294;2023-06-22T08:58:45;101134.06;;;22.98;54.93
76311;BME280;65120;59.304;18.294;2023-06-22T09:01:12;101127.50;;;23.03;54.95
76311;BME280;65120;59.304;18.294;2023-06-22T09:03:41;101124.63;;;23.06;54.96
76311;BME280;65120;59.304;18.294;2023-06-22T09:06:08;101125.19;;;23.11;54.74
76311;BME280;65120;59.304;18.294;2023-06-22T09:08:35;101121.47;;;23.14;54.24
76311;BME280;65120;59.304;18.294;2023-06-22T09:11:02;101114.09;;;23.18;54.41
76311;BME280;65120;59.304;18.294;2023-06-22T09:13:32;101120.28;;;23.18;53.85
76311;BME280;65120;59.304;18.294;2023-06-22T09:16:00;101123.81;;;23.19;53.94
76311;BME280;65120;59.304;18.294;2023-06-22T09:18:27;101120.94;;;23.22;54.06
76311;BME280;65120;59.304;18.294;2023-06-22T09:20:54;101121.69;;;23.24;53.83
76311;BME280;65120;59.304;18.294;2023-06-22T09:23:20;101118.81;;;23.27;54.01
76311;BME280;65120;59.304;18.294;2023-06-22T09:25:47;101110.53;;;23.31;53.82
76311;BME280;65120;59.304;18.294;2023-06-22T09:28:16;101109.34;;;23.35;53.34
76311;BME280;65120;59.304;18.294;2023-06-22T09:30:44;101113.56;;;23.40;53.27
76311;BME280;65120;59.304;18.294;2023-06-22T09:33:11;101107.25;;;23.41;52.62
76311;BME280;65120;59.304;18.294;2023-06-22T09:35:38;101098.41;;;23.40;52.63
76311;BME280;65120;59.304;18.294;2023-06-22T09:38:05;101106.94;;;23.45;52.54
76311;BME280;65120;59.304;18.294;2023-06-22T09:40:32;101103.09;;;23.49;52.55
76311;BME280;65120;59.304;18.294;2023-06-22T09:43:05;101095.66;;;23.54;52.38
76311;BME280;65120;59.304;18.294;2023-06-22T09:45:32;101101.63;;;23.58;52.62
76311;BME280;65120;59.304;18.294;2023-06-22T09:48:00;101098.75;;;23.61;52.30
76311;BME280;65120;59.304;18.294;2023-06-22T09:50:27;101091.38;;;23.65;51.97
76311;BME280;65120;59.304;18.294;2023-06-22T09:52:54;101086.59;;;23.70;52.04
76311;BME280;65120;59.304;18.294;2023-06-22T09:55:21;101099.53;;;23.76;51.61
76311;BME280;65120;59.304;18.294;2023-06-22T09:57:48;101093.06;;;23.80;50.73
76311;BME280;65120;59.304;18.294;2023-06-22T10:00:16;101078.97;;;23.78;50.69
76311;BME280;65120;59.304;18.294;2023-06-22T10:02:44;101076.72;;;23.85;50.61
76311;BME280;65120;59.304;18.294;2023-06-22T10:05:13;101087.41;;;23.97;50.34
76311;BME280;65120;59.304;18.294;2023-06-22T10:07:40;101094.97;;;24.04;50.71
76311;BME280;65120;59.304;18.294;2023-06-22T10:10:09;101080.56;;;24.06;50.26
76311;BME280;65120;59.304;18.294;2023-06-22T10:12:36;101087.06;;;24.15;49.90
76311;BME280;65120;59.304;18.294;2023-06-22T10:15:03;101091.97;;;24.21;50.22
76311;BME280;65120;59.304;18.294;2023-06-22T10:17:31;101092.50;;;24.26;50.11
76311;BME280;65120;59.304;18.294;2023-06-22T10:19:57;101094.72;;;24.32;49.92
76311;BME280;65120;59.304;18.294;2023-06-22T10:22:26;101090.00;;;24.36;49.53
76311;BME280;65120;59.304;18.294;2023-06-22T10:24:53;101093.34;;;24.39;49.37
76311;BME280;65120;59.304;18.294;2023-06-22T10:27:19;101088.53;;;24.44;49.49
76311;BME280;65120;59.304;18.294;2023-06-22T10:29:46;101091.84;;;24.48;48.67
76311;BME280;65120;59.304;18.294;2023-06-22T10:32:13;101093.31;;;24.52;48.95
76311;BME280;65120;59.304;18.294;2023-06-22T10:34:40;101093.94;;;24.56;48.55
76311;BME280;65120;59.304;18.294;2023-06-22T10:37:07;101087.31;;;24.61;48.34
76311;BME280;65120;59.304;18.294;2023-06-22T10:39:35;101074.72;;;24.63;48.12
76311;BME280;65120;59.304;18.294;2023-06-22T10:42:02;101082.28;;;24.69;47.80
76311;BME280;65120;59.304;18.294;2023-06-22T10:44:29;101087.28;;;24.74;47.48
76311;BME280;65120;59.304;18.294;2023-06-22T10:46:56;101084.38;;;24.77;47.03
76311;BME280;65120;59.304;18.294;2023-06-22T10:49:23;101081.59;;;24.79;46.26
76311;BME280;65120;59.304;18.294;2023-06-22T10:51:50;101083.19;;;24.81;46.52
76311;BME280;65120;59.304;18.294;2023-06-22T10:54:17;101078.59;;;24.83;46.52
76311;BME280;65120;59.304;18.294;2023-06-22T10:56:46;101076.66;;;24.85;45.68
76311;BME280;65120;59.304;18.294;2023-06-22T10:59:13;101072.91;;;24.88;45.57
76311;BME280;65120;59.304;18.294;2023-06-22T11:01:40;101074.50;;;24.90;45.87
76311;BME280;65120;59.304;18.294;2023-06-22T11:04:06;101070.72;;;24.93;46.30
76311;BME280;65120;59.304;18.294;2023-06-22T11:06:33;101071.38;;;24.97;45.73
76311;BME280;65120;59.304;18.294;2023-06-22T11:09:00;101077.34;;;25.00;45.30
76311;BME280;65120;59.304;18.294;2023-06-22T11:11:29;101070.91;;;25.03;45.34
76311;BME280;65120;59.304;18.294;2023-06-22T11:13:57;101067.28;;;25.04;45.22
76311;BME280;65120;59.304;18.294;2023-06-22T11:16:24;101061.69;;;25.07;45.31
76311;BME280;65120;59.304;18.294;2023-06-22T11:18:51;101072.16;;;25.10;45.38
76311;BME280;65120;59.304;18.294;2023-06-22T11:21:18;101065.72;;;25.12;44.80
76311;BME280;65120;59.304;18.294;2023-06-22T11:23:45;101063.91;;;25.13;44.68
76311;BME280;65120;59.304;18.294;2023-06-22T11:26:12;101068.94;;;25.18;44.07
76311;BME280;65120;59.304;18.294;2023-06-22T11:28:39;101072.38;;;25.20;44.22
76311;BME280;65120;59.304;18.294;2023-06-22T11:31:07;101064.44;;;25.18;43.55
76311;BME280;65120;59.304;18.294;2023-06-22T11:33:34;101069.31;;;25.24;44.12
76311;BME280;65120;59.304;18.294;2023-06-22T11:36:02;101069.31;;;25.24;43.86
76311;BME280;65120;59.304;18.294;2023-06-22T11:38:29;101070.81;;;25.28;43.48
76311;BME280;65120;59.304;18.294;2023-06-22T11:40:58;101061.72;;;25.31;43.85
76311;BME280;65120;59.304;18.294;2023-06-22T11:43:28;101062.56;;;25.31;44.05
76311;BME280;65120;59.304;18.294;2023-06-22T11:45:55;101066.69;;;25.35;43.91
76311;BME280;65120;59.304;18.294;2023-06-22T11:48:25;101048.72;;;25.38;43.70
76311;BME280;65120;59.304;18.294;2023-06-22T11:50:51;101053.81;;;25.41;43.98
76311;BME280;65120;59.304;18.294;2023-06-22T11:53:20;101057.25;;;25.43;43.93
76311;BME280;65120;59.304;18.294;2023-06-22T11:55:47;101043.50;;;25.36;43.84
76311;BME280;65120;59.304;18.294;2023-06-22T11:58:14;101051.66;;;25.46;43.28
76311;BME280;65120;59.304;18.294;2023-06-22T12:00:41;101055.91;;;25.48;43.47
76311;BME280;65120;59.304;18.294;2023-06-22T12:03:08;101056.78;;;25.49;43.44
76311;BME280;65120;59.304;18.294;2023-06-22T12:05:38;101054.84;;;25.51;42.76
76311;BME280;65120;59.304;18.294;2023-06-22T12:08:05;101043.41;;;25.49;42.71
76311;BME280;65120;59.304;18.294;2023-06-22T12:10:32;101054.47;;;25.55;42.63
76311;BME280;65120;59.304;18.294;2023-06-22T12:12:59;101042.22;;;25.53;42.36
76311;BME280;65120;59.304;18.294;2023-06-22T12:15:26;101051.56;;;25.58;42.13
76311;BME280;65120;59.304;18.294;2023-06-22T12:17:53;101056.06;;;25.58;42.09
76311;BME280;65120;59.304;18.294;2023-06-22T12:20:20;101059.38;;;25.62;42.08
76311;BME280;65120;59.304;18.294;2023-06-22T12:22:48;101057.53;;;25.62;41.82
76311;BME280;65120;59.304;18.294;2023-06-22T12:25:17;101050.34;;;25.63;40.99
76311;BME280;65120;59.304;18.294;2023-06-22T12:27:44;101052.19;;;25.62;41.74
76311;BME280;65120;59.304;18.294;2023-06-22T12:30:11;101062.03;;;25.62;41.89
76311;BME280;65120;59.304;18.294;2023-06-22T12:32:38;101053.88;;;25.63;41.92
76311;BME280;65120;59.304;18.294;2023-06-22T12:35:05;101057.31;;;25.65;42.04
76311;BME280;65120;59.304;18.294;2023-06-22T12:37:38;101064.34;;;25.66;41.76
76311;BME280;65120;59.304;18.294;2023-06-22T12:40:08;101054.50;;;25.67;41.91
76311;BME280;65120;59.304;18.294;2023-06-22T12:42:35;101055.38;;;25.67;42.14